sensor_id;sensor_type;location;lat;lon;timestamp;P1;durP1;ratioP1;P2;durP2;ratioP2
54145;SDS011;65909;49.422;7.738;2023-05-07T00:00:45;4.43;;;2.20;;
54145;SDS011;65909;49.422;7.738;2023-05-07T00:03:10;3.75;;;2.00;;
54145;SDS011;65909;49.422;7.738;2023-05-07T00:05:36;1.92;;;1.73;;
54145;SDS011;65909;49.422;7.738;2023-05-07T00:08:02;5.03;;;2.17;;
54145;SDS011;65909;49.422;7.738;2023-05-07T00:10:28;4.63;;;1.98;;
54145;SDS011;65909;49.422;7.738;2023-05-07T00:12:53;2.78;;;2.17;;
54145;SDS011;65909;49.422;7.738;2023-05-07T00:15:19;2.83;;;2.38;;
54145;SDS011;65909;49.422;7.738;2023-05-07T00:17:44;2.45;;;1.90;;
54145;SDS011;65909;49.422;7.738;2023-05-07T00:20:10;2.65;;;2.13;;
54145;SDS011;65909;49.422;7.738;2023-05-07T00:22:35;3.47;;;2.55;;
54145;SDS011;65909;49.422;7.738;2023-05-07T00:25:01;3.22;;;2.40;;
54145;SDS011;65909;49.422;7.738;2023-05-07T00:27:26;3.20;;;2.10;;
54145;SDS011;65909;49.422;7.738;2023-05-07T00:29:51;3.40;;;1.95;;
54145;SDS011;65909;49.422;7.738;2023-05-07T00:32:17;2.50;;;2.20;;
54145;SDS011;65909;49.422;7.738;2023-05-07T00:34:42;3.20;;;2.33;;
54145;SDS011;65909;49.422;7.738;2023-05-07T00:37:08;2.55;;;2.10;;
54145;SDS011;65909;49.422;7.738;2023-05-07T00:39:34;3.70;;;1.95;;
54145;SDS011;65909;49.422;7.738;2023-05-07T00:41:59;2.53;;;2.15;;
54145;SDS011;65909;49.422;7.738;2023-05-07T00:44:25;4.03;;;2.50;;
54145;SDS011;65909;49.422;7.738;2023-05-07T00:46:51;3.50;;;1.90;;
54145;SDS011;65909;49.422;7.738;2023-05-07T00:49:16;3.85;;;1.90;;
54145;SDS011;65909;49.422;7.738;2023-05-07T00:51:43;3.58;;;2.08;;
54145;SDS011;65909;49.422;7.738;2023-05-07T00:54:10;2.00;;;1.80;;
54145;SDS011;65909;49.422;7.738;2023-05-07T00:56:36;3.20;;;1.90;;
54145;SDS011;65909;49.422;7.738;2023-05-07T00:59:02;2.67;;;2.10;;
54145;SDS011;65909;49.422;7.738;2023-05-07T01:01:28;3.67;;;2.08;;
54145;SDS011;65909;49.422;7.738;2023-05-07T01:03:53;3.20;;;2.40;;
54145;SDS011;65909;49.422;7.738;2023-05-07T01:06:19;3.67;;;2.25;;
54145;SDS011;65909;49.422;7.738;2023-05-07T01:08:46;2.95;;;1.90;;
54145;SDS011;65909;49.422;7.738;2023-05-07T01:11:13;4.10;;;1.98;;
54145;SDS011;65909;49.422;7.738;2023-05-07T01:13:39;4.63;;;2.10;;
54145;SDS011;65909;49.422;7.738;2023-05-07T01:16:05;2.33;;;2.13;;
54145;SDS011;65909;49.422;7.738;2023-05-07T01:18:31;3.72;;;2.35;;
54145;SDS011;65909;49.422;7.738;2023-05-07T01:20:59;3.47;;;2.42;;
54145;SDS011;65909;49.422;7.738;2023-05-07T01:23:28;3.03;;;2.03;;
54145;SDS011;65909;49.422;7.738;2023-05-07T01:25:55;3.67;;;2.25;;
54145;SDS011;65909;49.422;7.738;2023-05-07T01:28:20;3.47;;;2.20;;
54145;SDS011;65909;49.422;7.738;2023-05-07T01:30:48;3.85;;;2.38;;
54145;SDS011;65909;49.422;7.738;2023-05-07T01:33:21;4.53;;;2.33;;
54145;SDS011;65909;49.422;7.738;2023-05-07T01:35:47;3.00;;;2.40;;
54145;SDS011;65909;49.422;7.738;2023-05-07T01:38:15;3.05;;;2.33;;
54145;SDS011;65909;49.422;7.738;2023-05-07T01:40:41;3.25;;;2.20;;
54145;SDS011;65909;49.422;7.738;2023-05-07T01:43:10;4.72;;;2.55;;
54145;SDS011;65909;49.422;7.738;2023-05-07T01:45:35;4.85;;;2.33;;
54145;SDS011;65909;49.422;7.738;2023-05-07T01:48:01;3.08;;;2.47;;
54145;SDS011;65909;49.422;7.738;2023-05-07T01:50:27;5.47;;;2.60;;
54145;SDS011;65909;49.422;7.738;2023-05-07T01:52:54;3.35;;;3.03;;
54145;SDS011;65909;49.422;7.738;2023-05-07T01:55:20;6.65;;;2.40;;
54145;SDS011;65909;49.422;7.738;2023-05-07T01:57:46;2.25;;;2.05;;
54145;SDS011;65909;49.422;7.738;2023-05-07T02:00:11;3.70;;;2.33;;
54145;SDS011;65909;49.422;7.738;2023-05-07T02:02:37;3.00;;;2.45;;
54145;SDS011;65909;49.422;7.738;2023-05-07T02:05:03;5.57;;;2.42;;
54145;SDS011;65909;49.422;7.738;2023-05-07T02:07:28;2.45;;;2.20;;
54145;SDS011;65909;49.422;7.738;2023-05-07T02:09:54;6.28;;;2.30;;
54145;SDS011;65909;49.422;7.738;2023-05-07T02:12:22;2.78;;;2.17;;
54145;SDS011;65909;49.422;7.738;2023-05-07T02:14:48;4.00;;;2.20;;
54145;SDS011;65909;49.422;7.738;2023-05-07T02:17:13;3.53;;;2.50;;
54145;SDS011;65909;49.422;7.738;2023-05-07T02:19:38;2.53;;;2.15;;
54145;SDS011;65909;49.422;7.738;2023-05-07T02:22:04;2.08;;;1.80;;
54145;SDS011;65909;49.422;7.738;2023-05-07T02:24:29;2.70;;;2.10;;
54145;SDS011;65909;49.422;7.738;2023-05-07T02:26:55;3.90;;;2.20;;
54145;SDS011;65909;49.422;7.738;2023-05-07T02:29:20;3.33;;;2.20;;
54145;SDS011;65909;49.422;7.738;2023-05-07T02:31:45;4.22;;;2.60;;
54145;SDS011;65909;49.422;7.738;2023-05-07T02:34:12;3.42;;;2.40;;
54145;SDS011;65909;49.422;7.738;2023-05-07T02:36:37;5.50;;;2.42;;
54145;SDS011;65909;49.422;7.738;2023-05-07T02:39:03;4.15;;;2.60;;
54145;SDS011;65909;49.422;7.738;2023-05-07T02:41:31;3.35;;;2.38;;
54145;SDS011;65909;49.422;7.738;2023-05-07T02:43:56;2.13;;;1.92;;
54145;SDS011;65909;49.422;7.738;2023-05-07T02:46:22;2.58;;;2.20;;
54145;SDS011;65909;49.422;7.738;2023-05-07T02:48:47;3.72;;;2.60;;
54145;SDS011;65909;49.422;7.738;2023-05-07T02:51:13;4.80;;;2.50;;
54145;SDS011;65909;49.422;7.738;2023-05-07T02:53:38;3.45;;;2.47;;
54145;SDS011;65909;49.422;7.738;2023-05-07T02:56:04;4.55;;;2.40;;
54145;SDS011;65909;49.422;7.738;2023-05-07T02:58:30;5.07;;;2.50;;
54145;SDS011;65909;49.422;7.738;2023-05-07T03:00:56;6.60;;;2.40;;
54145;SDS011;65909;49.422;7.738;2023-05-07T03:03:21;4.10;;;1.98;;
54145;SDS011;65909;49.422;7.738;2023-05-07T03:05:46;3.00;;;2.35;;
54145;SDS011;65909;49.422;7.738;2023-05-07T03:08:12;4.68;;;2.38;;
54145;SDS011;65909;49.422;7.738;2023-05-07T03:10:37;3.17;;;2.30;;
54145;SDS011;65909;49.422;7.738;2023-05-07T03:13:03;4.75;;;2.38;;
54145;SDS011;65909;49.422;7.738;2023-05-07T03:15:29;4.43;;;3.22;;
54145;SDS011;65909;49.422;7.738;2023-05-07T03:17:54;3.35;;;2.50;;
54145;SDS011;65909;49.422;7.738;2023-05-07T03:20:20;2.92;;;2.22;;
54145;SDS011;65909;49.422;7.738;2023-05-07T03:22:45;6.65;;;2.50;;
54145;SDS011;65909;49.422;7.738;2023-05-07T03:25:10;3.67;;;2.38;;
54145;SDS011;65909;49.422;7.738;2023-05-07T03:27:36;3.38;;;2.40;;
54145;SDS011;65909;49.422;7.738;2023-05-07T03:30:02;2.90;;;2.55;;
54145;SDS011;65909;49.422;7.738;2023-05-07T03:32:29;2.42;;;2.20;;
54145;SDS011;65909;49.422;7.738;2023-05-07T03:34:54;5.47;;;2.70;;
54145;SDS011;65909;49.422;7.738;2023-05-07T03:37:20;2.95;;;2.20;;
54145;SDS011;65909;49.422;7.738;2023-05-07T03:39:46;3.33;;;2.45;;
54145;SDS011;65909;49.422;7.738;2023-05-07T03:42:12;6.00;;;2.90;;
54145;SDS011;65909;49.422;7.738;2023-05-07T03:44:38;4.32;;;2.70;;
54145;SDS011;65909;49.422;7.738;2023-05-07T03:47:04;5.22;;;2.60;;
54145;SDS011;65909;49.422;7.738;2023-05-07T03:49:29;3.92;;;2.60;;
54145;SDS011;65909;49.422;7.738;2023-05-07T03:51:54;3.10;;;2.42;;
54145;SDS011;65909;49.422;7.738;2023-05-07T03:54:20;4.80;;;2.63;;
54145;SDS011;65909;49.422;7.738;2023-05-07T03:56:46;4.15;;;2.70;;
54145;SDS011;65909;49.422;7.738;2023-05-07T03:59:12;4.82;;;2.85;;
54145;SDS011;65909;49.422;7.738;2023-05-07T04:01:38;6.40;;;3.28;;
54145;SDS011;65909;49.422;7.738;2023-05-07T04:04:03;4.90;;;2.72;;
54145;SDS011;65909;49.422;7.738;2023-05-07T04:06:29;3.28;;;2.67;;
54145;SDS011;65909;49.422;7.738;2023-05-07T04:08:54;3.65;;;2.72;;
54145;SDS011;65909;49.422;7.738;2023-05-07T04:11:19;6.80;;;3.45;;
54145;SDS011;65909;49.422;7.738;2023-05-07T04:13:45;4.43;;;3.45;;
54145;SDS011;65909;49.422;7.738;2023-05-07T04:16:10;3.35;;;2.90;;
54145;SDS011;65909;49.422;7.738;2023-05-07T04:18:36;5.20;;;2.97;;
54145;SDS011;65909;49.422;7.738;2023-05-07T04:21:01;3.58;;;3.15;;
54145;SDS011;65909;49.422;7.738;2023-05-07T04:23:26;5.00;;;3.17;;
54145;SDS011;65909;49.422;7.738;2023-05-07T04:25:52;4.93;;;3.38;;
54145;SDS011;65909;49.422;7.738;2023-05-07T04:28:17;4.68;;;3.50;;
54145;SDS011;65909;49.422;7.738;2023-05-07T04:30:43;6.30;;;4.03;;
54145;SDS011;65909;49.422;7.738;2023-05-07T04:33:08;4.15;;;3.10;;
54145;SDS011;65909;49.422;7.738;2023-05-07T04:35:33;4.47;;;3.50;;
54145;SDS011;65909;49.422;7.738;2023-05-07T04:38:00;4.53;;;3.08;;
54145;SDS011;65909;49.422;7.738;2023-05-07T04:40:26;6.38;;;3.15;;
54145;SDS011;65909;49.422;7.738;2023-05-07T04:42:51;5.63;;;3.22;;
54145;SDS011;65909;49.422;7.738;2023-05-07T04:45:18;4.25;;;3.22;;
54145;SDS011;65909;49.422;7.738;2023-05-07T04:47:43;4.88;;;3.45;;
54145;SDS011;65909;49.422;7.738;2023-05-07T04:50:09;4.75;;;3.00;;
54145;SDS011;65909;49.422;7.738;2023-05-07T04:52:34;6.95;;;3.13;;
54145;SDS011;65909;49.422;7.738;2023-05-07T04:55:00;5.55;;;2.83;;
54145;SDS011;65909;49.422;7.738;2023-05-07T04:57:26;5.40;;;3.10;;
54145;SDS011;65909;49.422;7.738;2023-05-07T04:59:52;4.65;;;3.13;;
54145;SDS011;65909;49.422;7.738;2023-05-07T05:02:18;6.38;;;3.20;;
54145;SDS011;65909;49.422;7.738;2023-05-07T05:04:43;3.92;;;3.05;;
54145;SDS011;65909;49.422;7.738;2023-05-07T05:07:08;4.78;;;3.47;;
54145;SDS011;65909;49.422;7.738;2023-05-07T05:09:34;6.00;;;3.45;;
54145;SDS011;65909;49.422;7.738;2023-05-07T05:11:59;4.55;;;3.10;;
54145;SDS011;65909;49.422;7.738;2023-05-07T05:14:25;3.35;;;2.95;;
54145;SDS011;65909;49.422;7.738;2023-05-07T05:16:50;4.18;;;3.10;;
54145;SDS011;65909;49.422;7.738;2023-05-07T05:19:15;4.35;;;2.83;;
54145;SDS011;65909;49.422;7.738;2023-05-07T05:21:41;6.60;;;3.78;;
54145;SDS011;65909;49.422;7.738;2023-05-07T05:24:06;4.50;;;3.40;;
54145;SDS011;65909;49.422;7.738;2023-05-07T05:26:32;5.20;;;3.67;;
54145;SDS011;65909;49.422;7.738;2023-05-07T05:28:57;3.88;;;3.17;;
54145;SDS011;65909;49.422;7.738;2023-05-07T05:31:22;4.93;;;3.58;;
54145;SDS011;65909;49.422;7.738;2023-05-07T05:33:48;4.68;;;3.40;;
54145;SDS011;65909;49.422;7.738;2023-05-07T05:36:13;4.00;;;3.53;;
54145;SDS011;65909;49.422;7.738;2023-05-07T05:38:39;3.67;;;3.08;;
54145;SDS011;65909;49.422;7.738;2023-05-07T05:41:05;4.93;;;3.33;;
54145;SDS011;65909;49.422;7.738;2023-05-07T05:43:30;3.92;;;3.10;;
54145;SDS011;65909;49.422;7.738;2023-05-07T05:45:56;5.30;;;3.35;;
54145;SDS011;65909;49.422;7.738;2023-05-07T05:48:22;4.28;;;3.15;;
54145;SDS011;65909;49.422;7.738;2023-05-07T05:50:47;5.10;;;3.60;;
54145;SDS011;65909;49.422;7.738;2023-05-07T05:53:13;4.30;;;3.42;;
54145;SDS011;65909;49.422;7.738;2023-05-07T05:55:38;4.28;;;3.13;;
54145;SDS011;65909;49.422;7.738;2023-05-07T05:58:04;4.35;;;2.92;;
54145;SDS011;65909;49.422;7.738;2023-05-07T06:00:29;4.07;;;3.03;;
54145;SDS011;65909;49.422;7.738;2023-05-07T06:02:55;4.03;;;3.20;;
54145;SDS011;65909;49.422;7.738;2023-05-07T06:05:20;4.45;;;3.08;;
54145;SDS011;65909;49.422;7.738;2023-05-07T06:07:46;5.53;;;3.30;;
54145;SDS011;65909;49.422;7.738;2023-05-07T06:10:11;3.85;;;2.92;;
54145;SDS011;65909;49.422;7.738;2023-05-07T06:12:36;4.10;;;3.20;;
54145;SDS011;65909;49.422;7.738;2023-05-07T06:15:02;4.43;;;3.17;;
54145;SDS011;65909;49.422;7.738;2023-05-07T06:17:28;5.30;;;3.35;;
54145;SDS011;65909;49.422;7.738;2023-05-07T06:19:53;3.90;;;3.35;;
54145;SDS011;65909;49.422;7.738;2023-05-07T06:22:18;4.07;;;2.70;;
54145;SDS011;65909;49.422;7.738;2023-05-07T06:24:44;4.38;;;3.05;;
54145;SDS011;65909;49.422;7.738;2023-05-07T06:27:09;5.00;;;3.20;;
54145;SDS011;65909;49.422;7.738;2023-05-07T06:29:35;3.38;;;2.50;;
54145;SDS011;65909;49.422;7.738;2023-05-07T06:32:06;4.10;;;3.10;;
54145;SDS011;65909;49.422;7.738;2023-05-07T06:34:35;2.97;;;2.50;;
54145;SDS011;65909;49.422;7.738;2023-05-07T06:37:01;3.15;;;2.85;;
54145;SDS011;65909;49.422;7.738;2023-05-07T06:39:26;3.70;;;3.22;;
54145;SDS011;65909;49.422;7.738;2023-05-07T06:41:52;6.22;;;2.80;;
54145;SDS011;65909;49.422;7.738;2023-05-07T06:44:17;5.28;;;2.83;;
54145;SDS011;65909;49.422;7.738;2023-05-07T06:46:42;4.25;;;3.20;;
54145;SDS011;65909;49.422;7.738;2023-05-07T06:49:08;4.05;;;2.92;;
54145;SDS011;65909;49.422;7.738;2023-05-07T06:51:33;3.95;;;2.75;;
54145;SDS011;65909;49.422;7.738;2023-05-07T06:53:58;4.22;;;2.90;;
54145;SDS011;65909;49.422;7.738;2023-05-07T06:56:24;4.38;;;2.65;;
54145;SDS011;65909;49.422;7.738;2023-05-07T06:58:50;3.40;;;2.53;;
54145;SDS011;65909;49.422;7.738;2023-05-07T07:01:15;3.00;;;2.60;;
54145;SDS011;65909;49.422;7.738;2023-05-07T07:03:40;5.50;;;2.70;;
54145;SDS011;65909;49.422;7.738;2023-05-07T07:06:06;3.47;;;2.63;;
54145;SDS011;65909;49.422;7.738;2023-05-07T07:08:31;3.50;;;3.13;;
54145;SDS011;65909;49.422;7.738;2023-05-07T07:10:57;4.78;;;2.92;;
54145;SDS011;65909;49.422;7.738;2023-05-07T07:13:22;5.45;;;2.75;;
54145;SDS011;65909;49.422;7.738;2023-05-07T07:15:48;3.83;;;2.67;;
54145;SDS011;65909;49.422;7.738;2023-05-07T07:18:13;3.50;;;2.80;;
54145;SDS011;65909;49.422;7.738;2023-05-07T07:20:39;3.58;;;2.67;;
54145;SDS011;65909;49.422;7.738;2023-05-07T07:23:04;3.80;;;2.80;;
54145;SDS011;65909;49.422;7.738;2023-05-07T07:25:29;2.70;;;2.50;;
54145;SDS011;65909;49.422;7.738;2023-05-07T07:27:55;4.03;;;2.63;;
54145;SDS011;65909;49.422;7.738;2023-05-07T07:30:20;2.95;;;2.75;;
54145;SDS011;65909;49.422;7.738;2023-05-07T07:32:46;3.00;;;2.50;;
54145;SDS011;65909;49.422;7.738;2023-05-07T07:35:11;3.20;;;2.72;;
54145;SDS011;65909;49.422;7.738;2023-05-07T07:37:36;2.85;;;2.47;;
54145;SDS011;65909;49.422;7.738;2023-05-07T07:40:02;3.90;;;2.63;;
54145;SDS011;65909;49.422;7.738;2023-05-07T07:42:28;2.75;;;2.47;;
54145;SDS011;65909;49.422;7.738;2023-05-07T07:44:54;3.35;;;2.55;;
54145;SDS011;65909;49.422;7.738;2023-05-07T07:47:19;4.72;;;2.53;;
54145;SDS011;65909;49.422;7.738;2023-05-07T07:49:45;4.35;;;2.85;;
54145;SDS011;65909;49.422;7.738;2023-05-07T07:52:10;4.32;;;2.95;;
54145;SDS011;65909;49.422;7.738;2023-05-07T07:54:35;4.25;;;2.60;;
54145;SDS011;65909;49.422;7.738;2023-05-07T07:57:01;3.00;;;2.70;;
54145;SDS011;65909;49.422;7.738;2023-05-07T07:59:26;3.10;;;2.60;;
54145;SDS011;65909;49.422;7.738;2023-05-07T08:01:52;3.08;;;2.53;;
54145;SDS011;65909;49.422;7.738;2023-05-07T08:04:20;3.50;;;3.00;;
54145;SDS011;65909;49.422;7.738;2023-05-07T08:06:46;2.70;;;2.50;;
54145;SDS011;65909;49.422;7.738;2023-05-07T08:09:11;2.78;;;2.47;;
54145;SDS011;65909;49.422;7.738;2023-05-07T08:11:36;2.90;;;2.60;;
54145;SDS011;65909;49.422;7.738;2023-05-07T08:14:02;2.72;;;2.53;;
54145;SDS011;65909;49.422;7.738;2023-05-07T08:16:28;3.60;;;2.78;;
54145;SDS011;65909;49.422;7.738;2023-05-07T08:18:53;4.32;;;2.80;;
54145;SDS011;65909;49.422;7.738;2023-05-07T08:21:19;3.08;;;2.60;;
54145;SDS011;65909;49.422;7.738;2023-05-07T08:23:45;3.63;;;2.83;;
54145;SDS011;65909;49.422;7.738;2023-05-07T08:26:10;3.92;;;3.05;;
54145;SDS011;65909;49.422;7.738;2023-05-07T08:28:36;2.97;;;2.72;;
54145;SDS011;65909;49.422;7.738;2023-05-07T08:31:01;3.60;;;3.03;;
54145;SDS011;65909;49.422;7.738;2023-05-07T08:33:27;4.18;;;3.67;;
54145;SDS011;65909;49.422;7.738;2023-05-07T08:35:52;5.78;;;3.03;;
54145;SDS011;65909;49.422;7.738;2023-05-07T08:38:17;3.97;;;2.80;;
54145;SDS011;65909;49.422;7.738;2023-05-07T08:40:43;3.53;;;2.90;;
54145;SDS011;65909;49.422;7.738;2023-05-07T08:43:08;4.18;;;3.15;;
54145;SDS011;65909;49.422;7.738;2023-05-07T08:45:39;4.28;;;3.30;;
54145;SDS011;65909;49.422;7.738;2023-05-07T08:48:07;3.60;;;3.28;;
54145;SDS011;65909;49.422;7.738;2023-05-07T08:50:39;4.15;;;3.15;;
54145;SDS011;65909;49.422;7.738;2023-05-07T08:53:04;3.80;;;3.45;;
54145;SDS011;65909;49.422;7.738;2023-05-07T08:55:30;3.35;;;3.05;;
54145;SDS011;65909;49.422;7.738;2023-05-07T08:57:56;4.63;;;3.40;;
54145;SDS011;65909;49.422;7.738;2023-05-07T09:00:21;4.63;;;3.85;;
54145;SDS011;65909;49.422;7.738;2023-05-07T09:02:47;4.22;;;3.60;;
54145;SDS011;65909;49.422;7.738;2023-05-07T09:05:12;5.32;;;3.40;;
54145;SDS011;65909;49.422;7.738;2023-05-07T09:07:38;4.18;;;3.78;;
54145;SDS011;65909;49.422;7.738;2023-05-07T09:10:04;3.95;;;3.30;;
54145;SDS011;65909;49.422;7.738;2023-05-07T09:12:30;5.88;;;3.90;;
54145;SDS011;65909;49.422;7.738;2023-05-07T09:14:55;4.03;;;3.63;;
54145;SDS011;65909;49.422;7.738;2023-05-07T09:17:21;6.00;;;3.75;;
54145;SDS011;65909;49.422;7.738;2023-05-07T09:19:46;5.35;;;3.80;;
54145;SDS011;65909;49.422;7.738;2023-05-07T09:22:12;3.72;;;3.38;;
54145;SDS011;65909;49.422;7.738;2023-05-07T09:24:38;3.50;;;3.20;;
54145;SDS011;65909;49.422;7.738;2023-05-07T09:27:04;4.28;;;3.75;;
54145;SDS011;65909;49.422;7.738;2023-05-07T09:29:30;5.65;;;3.15;;
54145;SDS011;65909;49.422;7.738;2023-05-07T09:32:03;3.45;;;2.75;;
54145;SDS011;65909;49.422;7.738;2023-05-07T09:34:30;3.80;;;3.40;;
54145;SDS011;65909;49.422;7.738;2023-05-07T09:36:57;4.05;;;3.47;;
54145;SDS011;65909;49.422;7.738;2023-05-07T09:39:24;3.95;;;3.50;;
54145;SDS011;65909;49.422;7.738;2023-05-07T09:41:50;5.20;;;4.07;;
54145;SDS011;65909;49.422;7.738;2023-05-07T09:44:19;4.57;;;3.95;;
54145;SDS011;65909;49.422;7.738;2023-05-07T09:46:45;5.63;;;3.88;;
54145;SDS011;65909;49.422;7.738;2023-05-07T09:49:22;4.03;;;3.17;;
54145;SDS011;65909;49.422;7.738;2023-05-07T09:51:49;5.38;;;3.38;;
54145;SDS011;65909;49.422;7.738;2023-05-07T09:54:16;4.10;;;3.65;;
54145;SDS011;65909;49.422;7.738;2023-05-07T09:56:43;4.50;;;3.53;;
54145;SDS011;65909;49.422;7.738;2023-05-07T09:59:13;4.30;;;3.70;;
54145;SDS011;65909;49.422;7.738;2023-05-07T10:01:40;4.95;;;3.65;;
54145;SDS011;65909;49.422;7.738;2023-05-07T10:04:07;3.72;;;3.13;;
54145;SDS011;65909;49.422;7.738;2023-05-07T10:06:34;3.47;;;3.17;;
54145;SDS011;65909;49.422;7.738;2023-05-07T10:09:00;3.42;;;3.03;;
54145;SDS011;65909;49.422;7.738;2023-05-07T10:11:26;4.47;;;3.70;;
54145;SDS011;65909;49.422;7.738;2023-05-07T10:13:52;4.22;;;3.50;;
54145;SDS011;65909;49.422;7.738;2023-05-07T10:16:18;3.33;;;3.03;;
54145;SDS011;65909;49.422;7.738;2023-05-07T10:18:44;3.75;;;3.25;;
54145;SDS011;65909;49.422;7.738;2023-05-07T10:21:11;4.38;;;3.17;;
54145;SDS011;65909;49.422;7.738;2023-05-07T10:23:49;4.07;;;3.50;;
54145;SDS011;65909;49.422;7.738;2023-05-07T10:26:17;4.55;;;3.33;;
54145;SDS011;65909;49.422;7.738;2023-05-07T10:28:46;6.32;;;3.60;;
54145;SDS011;65909;49.422;7.738;2023-05-07T10:34:16;5.00;;;3.55;;
54145;SDS011;65909;49.422;7.738;2023-05-07T10:36:46;3.33;;;2.90;;
54145;SDS011;65909;49.422;7.738;2023-05-07T10:39:12;5.13;;;3.20;;
54145;SDS011;65909;49.422;7.738;2023-05-07T10:41:38;3.28;;;2.65;;
54145;SDS011;65909;49.422;7.738;2023-05-07T10:44:04;4.95;;;2.97;;
54145;SDS011;65909;49.422;7.738;2023-05-07T10:46:29;4.63;;;3.30;;
54145;SDS011;65909;49.422;7.738;2023-05-07T10:51:27;6.50;;;3.08;;
54145;SDS011;65909;49.422;7.738;2023-05-07T10:56:39;4.00;;;3.33;;
54145;SDS011;65909;49.422;7.738;2023-05-07T11:01:53;3.85;;;3.00;;
54145;SDS011;65909;49.422;7.738;2023-05-07T11:04:19;3.55;;;3.13;;
54145;SDS011;65909;49.422;7.738;2023-05-07T11:15:02;3.10;;;2.72;;
54145;SDS011;65909;49.422;7.738;2023-05-07T11:17:29;3.60;;;2.95;;
54145;SDS011;65909;49.422;7.738;2023-05-07T11:19:59;3.65;;;2.67;;
54145;SDS011;65909;49.422;7.738;2023-05-07T11:25:04;4.00;;;2.80;;
54145;SDS011;65909;49.422;7.738;2023-05-07T11:27:31;3.35;;;3.05;;
54145;SDS011;65909;49.422;7.738;2023-05-07T11:29:58;3.30;;;3.00;;
54145;SDS011;65909;49.422;7.738;2023-05-07T11:32:30;3.50;;;2.90;;
54145;SDS011;65909;49.422;7.738;2023-05-07T11:35:00;3.83;;;3.00;;
54145;SDS011;65909;49.422;7.738;2023-05-07T11:37:26;3.30;;;3.00;;
54145;SDS011;65909;49.422;7.738;2023-05-07T11:40:03;3.28;;;2.90;;
54145;SDS011;65909;49.422;7.738;2023-05-07T11:44:57;4.70;;;3.47;;
54145;SDS011;65909;49.422;7.738;2023-05-07T11:47:23;4.28;;;2.60;;
54145;SDS011;65909;49.422;7.738;2023-05-07T11:49:53;3.65;;;2.80;;
54145;SDS011;65909;49.422;7.738;2023-05-07T11:52:20;4.07;;;3.08;;
54145;SDS011;65909;49.422;7.738;2023-05-07T11:54:53;5.78;;;2.90;;
54145;SDS011;65909;49.422;7.738;2023-05-07T11:57:20;4.00;;;2.93;;
54145;SDS011;65909;49.422;7.738;2023-05-07T11:59:46;3.45;;;2.85;;
54145;SDS011;65909;49.422;7.738;2023-05-07T12:02:17;5.47;;;2.90;;
54145;SDS011;65909;49.422;7.738;2023-05-07T12:04:42;3.33;;;2.80;;
54145;SDS011;65909;49.422;7.738;2023-05-07T12:07:14;3.38;;;2.58;;
54145;SDS011;65909;49.422;7.738;2023-05-07T12:09:40;3.10;;;2.80;;
54145;SDS011;65909;49.422;7.738;2023-05-07T12:12:06;3.70;;;2.55;;
54145;SDS011;65909;49.422;7.738;2023-05-07T12:14:32;4.80;;;3.20;;
54145;SDS011;65909;49.422;7.738;2023-05-07T12:16:57;5.90;;;2.50;;
54145;SDS011;65909;49.422;7.738;2023-05-07T12:19:24;3.30;;;2.40;;
54145;SDS011;65909;49.422;7.738;2023-05-07T12:21:49;2.90;;;2.60;;
54145;SDS011;65909;49.422;7.738;2023-05-07T12:24:15;4.97;;;3.10;;
54145;SDS011;65909;49.422;7.738;2023-05-07T12:26:41;3.40;;;2.80;;
54145;SDS011;65909;49.422;7.738;2023-05-07T12:29:06;4.10;;;2.92;;
54145;SDS011;65909;49.422;7.738;2023-05-07T12:31:32;2.60;;;2.40;;
54145;SDS011;65909;49.422;7.738;2023-05-07T12:33:57;3.45;;;2.70;;
54145;SDS011;65909;49.422;7.738;2023-05-07T12:36:23;3.20;;;2.38;;
54145;SDS011;65909;49.422;7.738;2023-05-07T12:38:51;3.20;;;2.50;;
54145;SDS011;65909;49.422;7.738;2023-05-07T12:41:16;3.72;;;2.35;;
54145;SDS011;65909;49.422;7.738;2023-05-07T12:43:46;3.53;;;2.17;;
54145;SDS011;65909;49.422;7.738;2023-05-07T12:46:11;3.03;;;2.40;;
54145;SDS011;65909;49.422;7.738;2023-05-07T12:48:44;3.00;;;2.65;;
54145;SDS011;65909;49.422;7.738;2023-05-07T12:51:12;2.75;;;2.35;;
54145;SDS011;65909;49.422;7.738;2023-05-07T12:53:40;2.63;;;2.17;;
54145;SDS011;65909;49.422;7.738;2023-05-07T12:56:08;3.58;;;2.70;;
54145;SDS011;65909;49.422;7.738;2023-05-07T12:58:34;3.90;;;2.60;;
54145;SDS011;65909;49.422;7.738;2023-05-07T13:01:04;3.17;;;2.50;;
54145;SDS011;65909;49.422;7.738;2023-05-07T13:03:32;2.65;;;2.35;;
54145;SDS011;65909;49.422;7.738;2023-05-07T13:05:59;2.80;;;2.38;;
54145;SDS011;65909;49.422;7.738;2023-05-07T13:08:29;2.78;;;2.33;;
54145;SDS011;65909;49.422;7.738;2023-05-07T13:10:59;2.65;;;2.38;;
54145;SDS011;65909;49.422;7.738;2023-05-07T13:13:28;3.20;;;2.60;;
54145;SDS011;65909;49.422;7.738;2023-05-07T13:15:53;2.53;;;2.33;;
54145;SDS011;65909;49.422;7.738;2023-05-07T13:18:19;2.38;;;2.13;;
54145;SDS011;65909;49.422;7.738;2023-05-07T13:20:44;2.92;;;2.25;;
54145;SDS011;65909;49.422;7.738;2023-05-07T13:23:10;2.42;;;2.17;;
54145;SDS011;65909;49.422;7.738;2023-05-07T13:25:35;3.13;;;2.30;;
54145;SDS011;65909;49.422;7.738;2023-05-07T13:28:00;2.47;;;2.28;;
54145;SDS011;65909;49.422;7.738;2023-05-07T13:30:26;3.45;;;2.30;;
54145;SDS011;65909;49.422;7.738;2023-05-07T13:32:53;2.30;;;2.10;;
54145;SDS011;65909;49.422;7.738;2023-05-07T13:35:20;3.00;;;2.25;;
54145;SDS011;65909;49.422;7.738;2023-05-07T13:37:46;4.07;;;2.15;;
54145;SDS011;65909;49.422;7.738;2023-05-07T13:40:13;3.38;;;2.63;;
54145;SDS011;65909;49.422;7.738;2023-05-07T13:42:38;2.50;;;2.30;;
54145;SDS011;65909;49.422;7.738;2023-05-07T13:45:04;2.53;;;2.33;;
54145;SDS011;65909;49.422;7.738;2023-05-07T13:47:30;2.70;;;2.28;;
54145;SDS011;65909;49.422;7.738;2023-05-07T13:49:55;3.03;;;2.40;;
54145;SDS011;65909;49.422;7.738;2023-05-07T13:52:21;2.33;;;2.10;;
54145;SDS011;65909;49.422;7.738;2023-05-07T13:54:46;3.55;;;2.30;;
54145;SDS011;65909;49.422;7.738;2023-05-07T13:57:11;2.65;;;2.42;;
54145;SDS011;65909;49.422;7.738;2023-05-07T13:59:37;2.92;;;2.30;;
54145;SDS011;65909;49.422;7.738;2023-05-07T14:02:02;2.40;;;2.20;;
54145;SDS011;65909;49.422;7.738;2023-05-07T14:04:28;2.30;;;2.10;;
54145;SDS011;65909;49.422;7.738;2023-05-07T14:06:53;2.53;;;2.33;;
54145;SDS011;65909;49.422;7.738;2023-05-07T14:09:18;2.65;;;2.45;;
54145;SDS011;65909;49.422;7.738;2023-05-07T14:11:44;2.50;;;2.10;;
54145;SDS011;65909;49.422;7.738;2023-05-07T14:14:09;2.67;;;2.05;;
54145;SDS011;65909;49.422;7.738;2023-05-07T14:16:35;2.45;;;2.05;;
54145;SDS011;65909;49.422;7.738;2023-05-07T14:19:01;2.83;;;2.30;;
54145;SDS011;65909;49.422;7.738;2023-05-07T14:21:27;3.00;;;2.13;;
54145;SDS011;65909;49.422;7.738;2023-05-07T14:23:52;2.63;;;1.90;;
54145;SDS011;65909;49.422;7.738;2023-05-07T14:26:18;2.45;;;2.03;;
54145;SDS011;65909;49.422;7.738;2023-05-07T14:28:44;3.45;;;2.40;;
54145;SDS011;65909;49.422;7.738;2023-05-07T14:31:11;2.67;;;1.92;;
54145;SDS011;65909;49.422;7.738;2023-05-07T14:33:36;3.25;;;2.40;;
54145;SDS011;65909;49.422;7.738;2023-05-07T14:36:02;2.30;;;2.10;;
54145;SDS011;65909;49.422;7.738;2023-05-07T14:38:28;2.60;;;2.10;;
54145;SDS011;65909;49.422;7.738;2023-05-07T14:40:54;2.55;;;1.80;;
54145;SDS011;65909;49.422;7.738;2023-05-07T14:43:21;2.75;;;2.00;;
54145;SDS011;65909;49.422;7.738;2023-05-07T14:45:46;5.25;;;1.80;;
54145;SDS011;65909;49.422;7.738;2023-05-07T14:48:12;2.45;;;1.95;;
54145;SDS011;65909;49.422;7.738;2023-05-07T14:50:40;4.07;;;1.77;;
54145;SDS011;65909;49.422;7.738;2023-05-07T14:53:06;2.58;;;2.00;;
54145;SDS011;65909;49.422;7.738;2023-05-07T14:55:31;3.70;;;2.10;;
54145;SDS011;65909;49.422;7.738;2023-05-07T14:57:56;3.53;;;1.80;;
54145;SDS011;65909;49.422;7.738;2023-05-07T15:00:22;2.63;;;2.00;;
54145;SDS011;65909;49.422;7.738;2023-05-07T15:02:47;2.22;;;1.67;;
54145;SDS011;65909;49.422;7.738;2023-05-07T15:05:13;2.50;;;2.10;;